sensor_id;sensor_type;location;lat;lon;timestamp;temperature;humidity
10245;DHT22;5167;52.164;10.530;2023-12-29T00:00:34;11.30;18.60
10245;DHT22;5167;52.164;10.530;2023-12-29T00:02:59;11.30;18.40
10245;DHT22;5167;52.164;10.530;2023-12-29T00:05:24;11.20;18.40
10245;DHT22;5167;52.164;10.530;2023-12-29T00:07:50;11.30;18.30
10245;DHT22;5167;52.164;10.530;2023-12-29T00:10:16;11.40;18.70
10245;DHT22;5167;52.164;10.530;2023-12-29T00:12:41;11.20;19.30
10245;DHT22;5167;52.164;10.530;2023-12-29T00:15:07;11.20;19.10
10245;DHT22;5167;52.164;10.530;2023-12-29T00:17:33;11.20;19.30
10245;DHT22;5167;52.164;10.530;2023-12-29T00:20:05;11.20;18.70
10245;DHT22;5167;52.164;10.530;2023-12-29T00:22:30;11.10;19.10
10245;DHT22;5167;52.164;10.530;2023-12-29T00:24:56;11.10;19.20
10245;DHT22;5167;52.164;10.530;2023-12-29T00:27:21;11.00;19.70
10245;DHT22;5167;52.164;10.530;2023-12-29T00:29:47;10.90;19.50
10245;DHT22;5167;52.164;10.530;2023-12-29T00:32:13;10.90;20.00
10245;DHT22;5167;52.164;10.530;2023-12-29T00:34:38;10.90;19.90
10245;DHT22;5167;52.164;10.530;2023-12-29T00:37:04;10.90;19.60
10245;DHT22;5167;52.164;10.530;2023-12-29T00:39:31;11.00;19.30
10245;DHT22;5167;52.164;10.530;2023-12-29T00:42:06;11.00;19.30
10245;DHT22;5167;52.164;10.530;2023-12-29T00:44:32;11.00;19.70
10245;DHT22;5167;52.164;10.530;2023-12-29T00:46:59;10.90;19.30
10245;DHT22;5167;52.164;10.530;2023-12-29T00:49:25;11.00;19.80
10245;DHT22;5167;52.164;10.530;2023-12-29T00:51:50;10.90;19.60
10245;DHT22;5167;52.164;10.530;2023-12-29T00:54:16;10.90;20.20
10245;DHT22;5167;52.164;10.530;2023-12-29T00:56:41;10.90;19.70
10245;DHT22;5167;52.164;10.530;2023-12-29T00:59:07;11.00;20.10
10245;DHT22;5167;52.164;10.530;2023-12-29T01:01:35;11.00;19.30
10245;DHT22;5167;52.164;10.530;2023-12-29T01:04:01;11.00;19.60
10245;DHT22;5167;52.164;10.530;2023-12-29T01:06:27;11.10;19.40
10245;DHT22;5167;52.164;10.530;2023-12-29T01:08:52;11.10;19.30
10245;DHT22;5167;52.164;10.530;2023-12-29T01:11:18;11.10;19.10
10245;DHT22;5167;52.164;10.530;2023-12-29T01:13:43;11.10;18.70
10245;DHT22;5167;52.164;10.530;2023-12-29T01:16:09;11.10;19.10
10245;DHT22;5167;52.164;10.530;2023-12-29T01:18:34;11.10;18.70
10245;DHT22;5167;52.164;10.530;2023-12-29T01:21:00;11.10;18.50
10245;DHT22;5167;52.164;10.530;2023-12-29T01:23:25;11.00;18.10
10245;DHT22;5167;52.164;10.530;2023-12-29T01:25:51;11.10;18.80
10245;DHT22;5167;52.164;10.530;2023-12-29T01:28:16;11.10;18.10
10245;DHT22;5167;52.164;10.530;2023-12-29T01:30:42;11.10;18.00
10245;DHT22;5167;52.164;10.530;2023-12-29T01:33:07;11.10;18.10
10245;DHT22;5167;52.164;10.530;2023-12-29T01:35:33;11.10;18.50
10245;DHT22;5167;52.164;10.530;2023-12-29T01:37:58;11.10;18.20
10245;DHT22;5167;52.164;10.530;2023-12-29T01:40:24;11.10;18.70
10245;DHT22;5167;52.164;10.530;2023-12-29T01:42:49;11.10;18.40
10245;DHT22;5167;52.164;10.530;2023-12-29T01:45:22;11.20;18.10
10245;DHT22;5167;52.164;10.530;2023-12-29T01:47:49;11.20;18.70
10245;DHT22;5167;52.164;10.530;2023-12-29T01:50:18;11.10;18.50
10245;DHT22;5167;52.164;10.530;2023-12-29T01:52:45;11.10;18.50
10245;DHT22;5167;52.164;10.530;2023-12-29T01:55:12;11.00;18.70
10245;DHT22;5167;52.164;10.530;2023-12-29T01:57:40;11.10;18.90
10245;DHT22;5167;52.164;10.530;2023-12-29T02:00:07;11.00;19.00
10245;DHT22;5167;52.164;10.530;2023-12-29T02:02:33;11.00;19.30
10245;DHT22;5167;52.164;10.530;2023-12-29T02:04:58;11.00;19.40
10245;DHT22;5167;52.164;10.530;2023-12-29T02:07:26;11.00;19.90
10245;DHT22;5167;52.164;10.530;2023-12-29T02:09:56;11.00;20.20
10245;DHT22;5167;52.164;10.530;2023-12-29T02:12:22;10.90;20.30
10245;DHT22;5167;52.164;10.530;2023-12-29T02:14:47;10.90;20.60
10245;DHT22;5167;52.164;10.530;2023-12-29T02:19:40;11.00;21.20
10245;DHT22;5167;52.164;10.530;2023-12-29T02:22:09;11.00;21.30
10245;DHT22;5167;52.164;10.530;2023-12-29T02:24:36;10.90;21.60
10245;DHT22;5167;52.164;10.530;2023-12-29T02:27:23;10.90;22.40
10245;DHT22;5167;52.164;10.530;2023-12-29T02:30:10;11.00;22.10
10245;DHT22;5167;52.164;10.530;2023-12-29T02:32:39;11.00;21.90
10245;DHT22;5167;52.164;10.530;2023-12-29T02:35:10;11.00;22.10
10245;DHT22;5167;52.164;10.530;2023-12-29T02:37:37;11.00;22.00
10245;DHT22;5167;52.164;10.530;2023-12-29T02:40:04;11.00;22.20
10245;DHT22;5167;52.164;10.530;2023-12-29T02:42:30;11.10;22.00
10245;DHT22;5167;52.164;10.530;2023-12-29T02:44:56;11.10;21.90
10245;DHT22;5167;52.164;10.530;2023-12-29T02:47:21;11.00;22.40
10245;DHT22;5167;52.164;10.530;2023-12-29T02:49:47;11.00;22.10
10245;DHT22;5167;52.164;10.530;2023-12-29T02:52:14;10.90;23.50
10245;DHT22;5167;52.164;10.530;2023-12-29T02:54:40;10.90;23.90
10245;DHT22;5167;52.164;10.530;2023-12-29T02:57:05;11.00;24.30
10245;DHT22;5167;52.164;10.530;2023-12-29T02:59:30;11.00;23.50
10245;DHT22;5167;52.164;10.530;2023-12-29T03:01:56;11.10;23.50
10245;DHT22;5167;52.164;10.530;2023-12-29T03:04:21;11.10;23.30
10245;DHT22;5167;52.164;10.530;2023-12-29T03:06:48;11.10;23.30
10245;DHT22;5167;52.164;10.530;2023-12-29T03:09:13;11.10;23.30
10245;DHT22;5167;52.164;10.530;2023-12-29T03:11:39;11.30;23.90
10245;DHT22;5167;52.164;10.530;2023-12-29T03:14:04;11.20;23.30
10245;DHT22;5167;52.164;10.530;2023-12-29T03:16:30;11.20;23.30
10245;DHT22;5167;52.164;10.530;2023-12-29T03:18:55;11.20;23.00
10245;DHT22;5167;52.164;10.530;2023-12-29T03:21:21;11.20;23.30
10245;DHT22;5167;52.164;10.530;2023-12-29T03:23:47;11.20;23.50
10245;DHT22;5167;52.164;10.530;2023-12-29T03:26:12;11.30;23.40
10245;DHT22;5167;52.164;10.530;2023-12-29T03:28:38;11.40;23.60
10245;DHT22;5167;52.164;10.530;2023-12-29T03:31:03;11.30;22.90
10245;DHT22;5167;52.164;10.530;2023-12-29T03:33:30;11.30;23.60
10245;DHT22;5167;52.164;10.530;2023-12-29T03:35:55;11.30;23.40
10245;DHT22;5167;52.164;10.530;2023-12-29T03:38:21;11.40;23.70
10245;DHT22;5167;52.164;10.530;2023-12-29T03:40:46;11.40;23.40
10245;DHT22;5167;52.164;10.530;2023-12-29T03:43:12;11.40;23.10
10245;DHT22;5167;52.164;10.530;2023-12-29T03:45:37;11.40;23.40
10245;DHT22;5167;52.164;10.530;2023-12-29T03:48:03;11.30;24.20
10245;DHT22;5167;52.164;10.530;2023-12-29T03:50:28;11.30;24.00
10245;DHT22;5167;52.164;10.530;2023-12-29T03:52:54;11.30;24.10
10245;DHT22;5167;52.164;10.530;2023-12-29T03:55:19;11.30;23.70
10245;DHT22;5167;52.164;10.530;2023-12-29T03:57:45;11.30;24.10
10245;DHT22;5167;52.164;10.530;2023-12-29T04:00:14;11.30;24.30
10245;DHT22;5167;52.164;10.530;2023-12-29T04:02:40;11.30;23.90
10245;DHT22;5167;52.164;10.530;2023-12-29T04:05:09;11.40;24.70
10245;DHT22;5167;52.164;10.530;2023-12-29T04:07:36;11.30;24.70
10245;DHT22;5167;52.164;10.530;2023-12-29T04:10:01;11.30;25.00
10245;DHT22;5167;52.164;10.530;2023-12-29T04:12:27;11.20;25.80
10245;DHT22;5167;52.164;10.530;2023-12-29T04:14:52;11.20;26.90
10245;DHT22;5167;52.164;10.530;2023-12-29T04:17:17;11.40;28.60
10245;DHT22;5167;52.164;10.530;2023-12-29T04:19:43;11.20;30.40
10245;DHT22;5167;52.164;10.530;2023-12-29T04:22:08;11.20;31.00
10245;DHT22;5167;52.164;10.530;2023-12-29T04:24:34;11.10;32.10
10245;DHT22;5167;52.164;10.530;2023-12-29T04:27:02;11.10;32.90
10245;DHT22;5167;52.164;10.530;2023-12-29T04:29:28;11.00;33.80
10245;DHT22;5167;52.164;10.530;2023-12-29T04:31:54;11.00;34.90
10245;DHT22;5167;52.164;10.530;2023-12-29T04:34:19;11.00;35.70
10245;DHT22;5167;52.164;10.530;2023-12-29T04:36:45;10.90;37.40
10245;DHT22;5167;52.164;10.530;2023-12-29T04:39:10;10.90;39.20
10245;DHT22;5167;52.164;10.530;2023-12-29T04:41:36;10.90;39.10
10245;DHT22;5167;52.164;10.530;2023-12-29T04:44:01;10.80;38.90
10245;DHT22;5167;52.164;10.530;2023-12-29T04:46:27;10.80;39.80
10245;DHT22;5167;52.164;10.530;2023-12-29T04:48:52;10.70;40.00
10245;DHT22;5167;52.164;10.530;2023-12-29T04:51:18;10.80;40.70
10245;DHT22;5167;52.164;10.530;2023-12-29T04:53:44;10.70;40.60
10245;DHT22;5167;52.164;10.530;2023-12-29T04:56:09;10.70;40.70
10245;DHT22;5167;52.164;10.530;2023-12-29T04:58:35;10.60;40.90
10245;DHT22;5167;52.164;10.530;2023-12-29T05:01:01;10.90;41.00
10245;DHT22;5167;52.164;10.530;2023-12-29T05:03:26;10.60;40.80
10245;DHT22;5167;52.164;10.530;2023-12-29T05:05:51;10.60;41.00
10245;DHT22;5167;52.164;10.530;2023-12-29T05:08:17;10.50;41.40
10245;DHT22;5167;52.164;10.530;2023-12-29T05:10:42;10.50;40.60
10245;DHT22;5167;52.164;10.530;2023-12-29T05:13:08;10.60;41.20
10245;DHT22;5167;52.164;10.530;2023-12-29T05:15:34;10.50;41.70
10245;DHT22;5167;52.164;10.530;2023-12-29T05:17:59;10.60;42.20
10245;DHT22;5167;52.164;10.530;2023-12-29T05:20:25;10.60;41.40
10245;DHT22;5167;52.164;10.530;2023-12-29T05:22:50;10.70;41.80
10245;DHT22;5167;52.164;10.530;2023-12-29T05:25:15;10.60;41.40
10245;DHT22;5167;52.164;10.530;2023-12-29T05:27:41;10.60;41.70
10245;DHT22;5167;52.164;10.530;2023-12-29T05:30:07;10.60;42.20
10245;DHT22;5167;52.164;10.530;2023-12-29T05:32:32;10.60;42.60
10245;DHT22;5167;52.164;10.530;2023-12-29T05:34:58;10.60;42.60
10245;DHT22;5167;52.164;10.530;2023-12-29T05:37:23;10.90;42.40
10245;DHT22;5167;52.164;10.530;2023-12-29T05:39:48;10.70;42.50
10245;DHT22;5167;52.164;10.530;2023-12-29T05:42:14;10.60;42.10
10245;DHT22;5167;52.164;10.530;2023-12-29T05:44:39;10.70;42.40
10245;DHT22;5167;52.164;10.530;2023-12-29T05:47:05;10.60;43.10
10245;DHT22;5167;52.164;10.530;2023-12-29T05:49:30;10.70;43.10
10245;DHT22;5167;52.164;10.530;2023-12-29T05:51:57;10.60;43.10
10245;DHT22;5167;52.164;10.530;2023-12-29T05:54:23;10.60;43.50
10245;DHT22;5167;52.164;10.530;2023-12-29T05:56:49;10.40;43.90
10245;DHT22;5167;52.164;10.530;2023-12-29T05:59:14;10.50;45.20
10245;DHT22;5167;52.164;10.530;2023-12-29T06:01:40;10.50;46.20
10245;DHT22;5167;52.164;10.530;2023-12-29T06:04:05;10.40;46.70
10245;DHT22;5167;52.164;10.530;2023-12-29T06:06:30;10.40;48.60
10245;DHT22;5167;52.164;10.530;2023-12-29T06:08:56;10.40;49.70
10245;DHT22;5167;52.164;10.530;2023-12-29T06:11:21;10.30;50.60
10245;DHT22;5167;52.164;10.530;2023-12-29T06:13:47;10.40;51.50
10245;DHT22;5167;52.164;10.530;2023-12-29T06:16:19;10.40;51.20
10245;DHT22;5167;52.164;10.530;2023-12-29T06:18:46;10.30;51.70
10245;DHT22;5167;52.164;10.530;2023-12-29T06:21:12;10.30;52.70
10245;DHT22;5167;52.164;10.530;2023-12-29T06:23:37;10.30;54.00
10245;DHT22;5167;52.164;10.530;2023-12-29T06:26:03;10.30;54.20
10245;DHT22;5167;52.164;10.530;2023-12-29T06:28:29;10.30;54.40
10245;DHT22;5167;52.164;10.530;2023-12-29T06:30:54;10.40;54.10
10245;DHT22;5167;52.164;10.530;2023-12-29T06:33:19;10.30;53.80
10245;DHT22;5167;52.164;10.530;2023-12-29T06:35:49;10.40;53.40
10245;DHT22;5167;52.164;10.530;2023-12-29T06:38:15;10.50;53.50
10245;DHT22;5167;52.164;10.530;2023-12-29T06:40:40;10.50;53.60
10245;DHT22;5167;52.164;10.530;2023-12-29T06:43:06;10.40;53.60
10245;DHT22;5167;52.164;10.530;2023-12-29T06:45:31;10.50;53.80
10245;DHT22;5167;52.164;10.530;2023-12-29T06:47:57;10.40;52.90
10245;DHT22;5167;52.164;10.530;2023-12-29T06:50:22;10.50;52.90
10245;DHT22;5167;52.164;10.530;2023-12-29T06:52:48;10.60;52.30
10245;DHT22;5167;52.164;10.530;2023-12-29T06:55:13;10.50;52.30
10245;DHT22;5167;52.164;10.530;2023-12-29T06:57:39;10.50;52.40
10245;DHT22;5167;52.164;10.530;2023-12-29T07:00:05;10.50;52.60
10245;DHT22;5167;52.164;10.530;2023-12-29T07:02:31;10.60;52.30
10245;DHT22;5167;52.164;10.530;2023-12-29T07:04:56;10.60;51.40
10245;DHT22;5167;52.164;10.530;2023-12-29T07:07:22;10.60;51.90
10245;DHT22;5167;52.164;10.530;2023-12-29T07:09:47;10.60;51.30
10245;DHT22;5167;52.164;10.530;2023-12-29T07:12:13;10.60;50.60
10245;DHT22;5167;52.164;10.530;2023-12-29T07:14:41;10.70;50.60
10245;DHT22;5167;52.164;10.530;2023-12-29T07:17:06;10.50;50.40
10245;DHT22;5167;52.164;10.530;2023-12-29T07:19:32;10.50;49.80
10245;DHT22;5167;52.164;10.530;2023-12-29T07:22:03;10.60;49.80
10245;DHT22;5167;52.164;10.530;2023-12-29T07:24:29;10.60;49.30
10245;DHT22;5167;52.164;10.530;2023-12-29T07:26:54;10.60;49.20
10245;DHT22;5167;52.164;10.530;2023-12-29T07:29:19;10.60;48.10
10245;DHT22;5167;52.164;10.530;2023-12-29T07:31:45;10.70;47.80
10245;DHT22;5167;52.164;10.530;2023-12-29T07:34:10;10.80;47.60
10245;DHT22;5167;52.164;10.530;2023-12-29T07:36:39;10.60;47.40
10245;DHT22;5167;52.164;10.530;2023-12-29T07:39:05;10.70;46.80
10245;DHT22;5167;52.164;10.530;2023-12-29T07:41:31;10.70;46.90
10245;DHT22;5167;52.164;10.530;2023-12-29T07:43:56;10.70;46.80
10245;DHT22;5167;52.164;10.530;2023-12-29T07:46:26;10.80;46.10
10245;DHT22;5167;52.164;10.530;2023-12-29T07:48:52;10.70;46.10
10245;DHT22;5167;52.164;10.530;2023-12-29T07:51:17;10.80;45.60
10245;DHT22;5167;52.164;10.530;2023-12-29T07:53:43;10.70;44.80
10245;DHT22;5167;52.164;10.530;2023-12-29T07:56:10;10.80;45.10
10245;DHT22;5167;52.164;10.530;2023-12-29T07:58:36;10.80;43.90
10245;DHT22;5167;52.164;10.530;2023-12-29T08:01:01;11.00;44.30
10245;DHT22;5167;52.164;10.530;2023-12-29T08:03:27;11.00;44.10
10245;DHT22;5167;52.164;10.530;2023-12-29T08:05:52;11.00;43.20
10245;DHT22;5167;52.164;10.530;2023-12-29T08:08:17;11.00;42.50
10245;DHT22;5167;52.164;10.530;2023-12-29T08:10:43;11.00;42.60
10245;DHT22;5167;52.164;10.530;2023-12-29T08:13:18;11.00;42.00
10245;DHT22;5167;52.164;10.530;2023-12-29T08:15:43;11.10;41.80
10245;DHT22;5167;52.164;10.530;2023-12-29T08:18:10;11.10;41.00
10245;DHT22;5167;52.164;10.530;2023-12-29T08:20:35;11.20;40.30
10245;DHT22;5167;52.164;10.530;2023-12-29T08:23:02;11.30;40.60
10245;DHT22;5167;52.164;10.530;2023-12-29T08:25:28;11.30;39.80
10245;DHT22;5167;52.164;10.530;2023-12-29T08:27:54;11.40;39.00
10245;DHT22;5167;52.164;10.530;2023-12-29T08:30:19;11.70;38.70
10245;DHT22;5167;52.164;10.530;2023-12-29T08:32:45;11.50;37.60
10245;DHT22;5167;52.164;10.530;2023-12-29T08:35:11;11.50;37.10
10245;DHT22;5167;52.164;10.530;2023-12-29T08:37:36;11.60;36.70
10245;DHT22;5167;52.164;10.530;2023-12-29T08:40:02;11.60;35.60
10245;DHT22;5167;52.164;10.530;2023-12-29T08:42:28;11.60;35.50
10245;DHT22;5167;52.164;10.530;2023-12-29T08:44:53;11.80;35.00
10245;DHT22;5167;52.164;10.530;2023-12-29T08:47:19;11.80;33.40
10245;DHT22;5167;52.164;10.530;2023-12-29T08:49:44;11.80;33.40
10245;DHT22;5167;52.164;10.530;2023-12-29T08:52:11;11.80;33.40
10245;DHT22;5167;52.164;10.530;2023-12-29T08:54:36;11.80;32.10
10245;DHT22;5167;52.164;10.530;2023-12-29T08:57:05;12.00;31.80
10245;DHT22;5167;52.164;10.530;2023-12-29T08:59:32;12.00;31.70
10245;DHT22;5167;52.164;10.530;2023-12-29T09:01:57;12.10;30.80
10245;DHT22;5167;52.164;10.530;2023-12-29T09:04:23;12.00;29.70
10245;DHT22;5167;52.164;10.530;2023-12-29T09:06:48;12.00;29.70
10245;DHT22;5167;52.164;10.530;2023-12-29T09:09:14;12.10;28.60
10245;DHT22;5167;52.164;10.530;2023-12-29T09:11:41;12.20;29.10
10245;DHT22;5167;52.164;10.530;2023-12-29T09:14:07;12.10;28.60
10245;DHT22;5167;52.164;10.530;2023-12-29T09:16:33;12.20;28.60
10245;DHT22;5167;52.164;10.530;2023-12-29T09:18:58;12.30;27.80
10245;DHT22;5167;52.164;10.530;2023-12-29T09:21:24;12.30;27.50
10245;DHT22;5167;52.164;10.530;2023-12-29T09:23:49;12.30;26.70
10245;DHT22;5167;52.164;10.530;2023-12-29T09:26:16;12.20;26.40
10245;DHT22;5167;52.164;10.530;2023-12-29T09:28:42;12.50;26.60
10245;DHT22;5167;52.164;10.530;2023-12-29T09:31:09;12.40;26.40
10245;DHT22;5167;52.164;10.530;2023-12-29T09:33:35;12.40;26.70
10245;DHT22;5167;52.164;10.530;2023-12-29T09:36:02;12.40;26.30
10245;DHT22;5167;52.164;10.530;2023-12-29T09:38:28;12.50;26.20
10245;DHT22;5167;52.164;10.530;2023-12-29T09:40:54;12.50;25.30
10245;DHT22;5167;52.164;10.530;2023-12-29T09:43:20;12.40;25.20
10245;DHT22;5167;52.164;10.530;2023-12-29T09:45:46;12.60;25.90
10245;DHT22;5167;52.164;10.530;2023-12-29T09:48:13;12.50;25.70
10245;DHT22;5167;52.164;10.530;2023-12-29T09:50:42;12.50;24.70
10245;DHT22;5167;52.164;10.530;2023-12-29T09:53:10;12.50;24.80
10245;DHT22;5167;52.164;10.530;2023-12-29T09:55:37;12.60;24.30
10245;DHT22;5167;52.164;10.530;2023-12-29T09:58:04;12.50;23.70
10245;DHT22;5167;52.164;10.530;2023-12-29T10:00:30;12.50;24.30
10245;DHT22;5167;52.164;10.530;2023-12-29T10:02:56;12.40;24.70
10245;DHT22;5167;52.164;10.530;2023-12-29T10:05:23;12.30;25.00
10245;DHT22;5167;52.164;10.530;2023-12-29T10:07:50;12.30;25.70
10245;DHT22;5167;52.164;10.530;2023-12-29T10:10:17;12.40;27.00
10245;DHT22;5167;52.164;10.530;2023-12-29T10:12:44;12.30;28.10
10245;DHT22;5167;52.164;10.530;2023-12-29T10:15:12;12.20;27.50
10245;DHT22;5167;52.164;10.530;2023-12-29T10:17:58;12.00;29.50
10245;DHT22;5167;52.164;10.530;2023-12-29T10:20:50;11.90;31.40
10245;DHT22;5167;52.164;10.530;2023-12-29T10:23:23;11.80;33.10
10245;DHT22;5167;52.164;10.530;2023-12-29T10:25:52;11.80;34.90
10245;DHT22;5167;52.164;10.530;2023-12-29T10:28:17;11.60;37.30
10245;DHT22;5167;52.164;10.530;2023-12-29T10:30:43;11.50;37.90
10245;DHT22;5167;52.164;10.530;2023-12-29T10:33:09;11.60;38.10
10245;DHT22;5167;52.164;10.530;2023-12-29T10:35:35;11.60;39.40
10245;DHT22;5167;52.164;10.530;2023-12-29T10:38:12;11.50;40.10
10245;DHT22;5167;52.164;10.530;2023-12-29T10:40:41;11.60;40.50
10245;DHT22;5167;52.164;10.530;2023-12-29T10:43:08;11.60;41.00
10245;DHT22;5167;52.164;10.530;2023-12-29T10:45:34;11.60;41.80
10245;DHT22;5167;52.164;10.530;2023-12-29T10:48:02;11.60;42.00
10245;DHT22;5167;52.164;10.530;2023-12-29T10:50:28;11.70;42.30
10245;DHT22;5167;52.164;10.530;2023-12-29T10:53:16;11.60;43.70
10245;DHT22;5167;52.164;10.530;2023-12-29T10:55:44;11.60;44.90
10245;DHT22;5167;52.164;10.530;2023-12-29T10:58:10;11.50;45.60
10245;DHT22;5167;52.164;10.530;2023-12-29T11:00:35;11.50;46.20
10245;DHT22;5167;52.164;10.530;2023-12-29T11:03:01;11.50;47.50
10245;DHT22;5167;52.164;10.530;2023-12-29T11:05:27;11.40;47.80
10245;DHT22;5167;52.164;10.530;2023-12-29T11:07:54;11.40;48.70
10245;DHT22;5167;52.164;10.530;2023-12-29T11:10:21;11.40;49.70
10245;DHT22;5167;52.164;10.530;2023-12-29T11:12:48;11.40;49.60
10245;DHT22;5167;52.164;10.530;2023-12-29T11:15:15;11.50;50.00
10245;DHT22;5167;52.164;10.530;2023-12-29T11:17:42;11.40;50.00
10245;DHT22;5167;52.164;10.530;2023-12-29T11:20:15;11.40;50.50
10245;DHT22;5167;52.164;10.530;2023-12-29T11:22:46;11.40;49.70
10245;DHT22;5167;52.164;10.530;2023-12-29T11:25:12;11.40;50.10
10245;DHT22;5167;52.164;10.530;2023-12-29T11:27:38;11.30;49.90
10245;DHT22;5167;52.164;10.530;2023-12-29T11:30:04;11.30;50.00
10245;DHT22;5167;52.164;10.530;2023-12-29T11:32:58;11.30;50.20
10245;DHT22;5167;52.164;10.530;2023-12-29T11:40:29;11.50;49.00
10245;DHT22;5167;52.164;10.530;2023-12-29T11:42:59;11.50;47.50
10245;DHT22;5167;52.164;10.530;2023-12-29T11:45:29;11.60;48.30
10245;DHT22;5167;52.164;10.530;2023-12-29T11:47:57;11.60;47.50
10245;DHT22;5167;52.164;10.530;2023-12-29T11:50:33;11.60;47.70
10245;DHT22;5167;52.164;10.530;2023-12-29T11:52:59;11.60;47.20
10245;DHT22;5167;52.164;10.530;2023-12-29T11:55:30;11.70;47.40
10245;DHT22;5167;52.164;10.530;2023-12-29T11:57:56;11.60;46.80
10245;DHT22;5167;52.164;10.530;2023-12-29T12:00:44;11.70;47.00
10245;DHT22;5167;52.164;10.530;2023-12-29T12:03:17;11.70;46.00
10245;DHT22;5167;52.164;10.530;2023-12-29T12:05:45;11.80;45.60
10245;DHT22;5167;52.164;10.530;2023-12-29T12:08:26;11.80;45.40
10245;DHT22;5167;52.164;10.530;2023-12-29T12:10:52;11.90;45.00
10245;DHT22;5167;52.164;10.530;2023-12-29T12:13:47;11.90;44.30
10245;DHT22;5167;52.164;10.530;2023-12-29T12:19:14;11.90;43.00
10245;DHT22;5167;52.164;10.530;2023-12-29T12:21:41;11.80;43.20
10245;DHT22;5167;52.164;10.530;2023-12-29T12:24:07;11.90;43.30
10245;DHT22;5167;52.164;10.530;2023-12-29T12:26:33;11.90;42.40
10245;DHT22;5167;52.164;10.530;2023-12-29T12:28:59;11.90;42.20
10245;DHT22;5167;52.164;10.530;2023-12-29T12:31:25;11.80;42.50
10245;DHT22;5167;52.164;10.530;2023-12-29T12:33:57;11.90;41.20
10245;DHT22;5167;52.164;10.530;2023-12-29T12:36:23;12.00;40.40
10245;DHT22;5167;52.164;10.530;2023-12-29T12:38:53;12.00;40.20
10245;DHT22;5167;52.164;10.530;2023-12-29T12:41:20;12.00;38.30
10245;DHT22;5167;52.164;10.530;2023-12-29T12:43:56;12.00;38.10
10245;DHT22;5167;52.164;10.530;2023-12-29T12:46:23;12.00;37.80
10245;DHT22;5167;52.164;10.530;2023-12-29T12:48:52;12.10;37.10
10245;DHT22;5167;52.164;10.530;2023-12-29T12:51:19;12.10;37.50
10245;DHT22;5167;52.164;10.530;2023-12-29T12:53:45;12.20;36.80
10245;DHT22;5167;52.164;10.530;2023-12-29T12:56:13;12.20;35.30
10245;DHT22;5167;52.164;10.530;2023-12-29T12:58:39;12.30;35.00
10245;DHT22;5167;52.164;10.530;2023-12-29T13:01:04;12.10;34.90
10245;DHT22;5167;52.164;10.530;2023-12-29T13:03:31;12.20;35.00
10245;DHT22;5167;52.164;10.530;2023-12-29T13:05:58;12.30;35.30
10245;DHT22;5167;52.164;10.530;2023-12-29T13:08:24;12.20;35.00
10245;DHT22;5167;52.164;10.530;2023-12-29T13:10:51;12.20;34.80
10245;DHT22;5167;52.164;10.530;2023-12-29T13:13:16;12.20;34.80
10245;DHT22;5167;52.164;10.530;2023-12-29T13:15:50;12.10;34.60
10245;DHT22;5167;52.164;10.530;2023-12-29T13:18:17;12.20;34.70
10245;DHT22;5167;52.164;10.530;2023-12-29T13:20:47;12.30;34.10
10245;DHT22;5167;52.164;10.530;2023-12-29T13:23:13;12.40;33.90
10245;DHT22;5167;52.164;10.530;2023-12-29T13:25:46;12.40;34.40
10245;DHT22;5167;52.164;10.530;2023-12-29T13:28:12;12.50;33.90
10245;DHT22;5167;52.164;10.530;2023-12-29T13:30:39;12.40;33.10
10245;DHT22;5167;52.164;10.530;2023-12-29T13:33:31;12.50;33.70
10245;DHT22;5167;52.164;10.530;2023-12-29T13:36:11;12.40;34.00
10245;DHT22;5167;52.164;10.530;2023-12-29T13:38:43;12.50;33.10
10245;DHT22;5167;52.164;10.530;2023-12-29T13:41:12;12.40;33.30
10245;DHT22;5167;52.164;10.530;2023-12-29T13:43:40;12.40;33.40
10245;DHT22;5167;52.164;10.530;2023-12-29T13:46:09;12.50;33.00
10245;DHT22;5167;52.164;10.530;2023-12-29T13:48:35;12.50;32.70
10245;DHT22;5167;52.164;10.530;2023-12-29T13:51:00;12.50;32.60
10245;DHT22;5167;52.164;10.530;2023-12-29T13:53:26;12.50;32.30
10245;DHT22;5167;52.164;10.530;2023-12-29T13:55:52;12.40;32.40
10245;DHT22;5167;52.164;10.530;2023-12-29T13:58:17;12.50;31.50
10245;DHT22;5167;52.164;10.530;2023-12-29T14:00:43;12.40;31.30
10245;DHT22;5167;52.164;10.530;2023-12-29T14:03:18;12.50;31.60
10245;DHT22;5167;52.164;10.530;2023-12-29T14:05:51;12.50;30.70
10245;DHT22;5167;52.164;10.530;2023-12-29T14:08:26;12.50;31.00
10245;DHT22;5167;52.164;10.530;2023-12-29T14:10:52;12.40;30.40
10245;DHT22;5167;52.164;10.530;2023-12-29T14:13:18;12.40;31.10
10245;DHT22;5167;52.164;10.530;2023-12-29T14:15:45;12.50;30.80
10245;DHT22;5167;52.164;10.530;2023-12-29T14:18:42;12.60;31.10
10245;DHT22;5167;52.164;10.530;2023-12-29T14:21:36;12.60;29.90
10245;DHT22;5167;52.164;10.530;2023-12-29T14:24:15;12.50;30.30
10245;DHT22;5167;52.164;10.530;2023-12-29T14:26:55;12.50;31.00
10245;DHT22;5167;52.164;10.530;2023-12-29T14:29:24;12.40;31.60
10245;DHT22;5167;52.164;10.530;2023-12-29T14:31:50;12.40;31.70
10245;DHT22;5167;52.164;10.530;2023-12-29T14:34:17;12.40;32.00
10245;DHT22;5167;52.164;10.530;2023-12-29T14:36:43;12.30;32.40
10245;DHT22;5167;52.164;10.530;2023-12-29T14:39:09;12.40;32.50
10245;DHT22;5167;52.164;10.530;2023-12-29T14:41:41;12.30;33.10
10245;DHT22;5167;52.164;10.530;2023-12-29T14:44:07;12.40;33.10
10245;DHT22;5167;52.164;10.530;2023-12-29T14:46:33;12.30;33.40
10245;DHT22;5167;52.164;10.530;2023-12-29T14:48:59;12.40;33.60
10245;DHT22;5167;52.164;10.530;2023-12-29T14:51:25;12.30;33.90
10245;DHT22;5167;52.164;10.530;2023-12-29T14:53:50;12.20;33.90
10245;DHT22;5167;52.164;10.530;2023-12-29T14:56:17;12.20;34.70
10245;DHT22;5167;52.164;10.530;2023-12-29T14:58:43;12.20;34.80
10245;DHT22;5167;52.164;10.530;2023-12-29T15:01:09;12.10;34.90
10245;DHT22;5167;52.164;10.530;2023-12-29T15:03:35;12.20;35.40
10245;DHT22;5167;52.164;10.530;2023-12-29T15:06:01;12.10;35.70
10245;DHT22;5167;52.164;10.530;2023-12-29T15:08:27;12.10;36.20
10245;DHT22;5167;52.164;10.530;2023-12-29T15:10:57;12.10;35.60
10245;DHT22;5167;52.164;10.530;2023-12-29T15:13:23;12.10;35.90
10245;DHT22;5167;52.164;10.530;2023-12-29T15:15:50;12.30;36.10
10245;DHT22;5167;52.164;10.530;2023-12-29T15:18:15;12.40;35.60
10245;DHT22;5167;52.164;10.530;2023-12-29T15:20:42;12.20;35.20
10245;DHT22;5167;52.164;10.530;2023-12-29T15:23:07;12.10;35.40
10245;DHT22;5167;52.164;10.530;2023-12-29T15:25:33;12.20;35.50
10245;DHT22;5167;52.164;10.530;2023-12-29T15:27:59;12.20;35.00
10245;DHT22;5167;52.164;10.530;2023-12-29T15:30:25;12.20;34.90
10245;DHT22;5167;52.164;10.530;2023-12-29T15:32:50;12.20;34.20
10245;DHT22;5167;52.164;10.530;2023-12-29T15:35:16;12.20;33.90
10245;DHT22;5167;52.164;10.530;2023-12-29T15:37:41;12.20;34.10
10245;DHT22;5167;52.164;10.530;2023-12-29T15:40:07;12.20;33.80